Ghaziabad Weather



Ghaziabad's Current Weather

Temprature 18.34o clear sky

clear sky

Rain: 0 %

Min Temprature18.34o
Max Temprature18.34o
Humidity27
Wind Speed2.09 m/h
Sun Rise06:20:17
Sun Set17:24:59
Current Time: 28-Oct-2020 05:38:12
Lat/Lon: 30.4, 72.76




Ghaziabad's Geo Location



Ghaziabad's Weather Forecast

Time Overall Temp Min Temp Max Temp Humidity Wind Speed Rain
28-Oct-2020 (Wed)
08:00:00 clear sky 20.810 20.810 23.290 23 2.57 m/h 0 %
11:00:00 clear sky 29.580 29.580 32.650 14 3.8 m/h 0 %
14:00:00 clear sky 33.700 33.700 34.740 11 3.35 m/h 0 %
17:00:00 clear sky 29.910 29.910 30.000 13 2.79 m/h 0 %
20:00:00 clear sky 23.590 23.590 23.590 19 2.37 m/h 0 %
23:00:00 clear sky 20.250 20.250 20.250 23 0.69 m/h 0 %
29-Oct-2020 (Thu)
02:00:00 clear sky 19.310 19.310 19.310 24 1.38 m/h 0 %
05:00:00 clear sky 18.410 18.410 18.410 26 2.12 m/h 0 %
08:00:00 clear sky 22.660 22.660 22.660 20 2.51 m/h 0 %
11:00:00 clear sky 32.150 32.150 32.150 12 3.43 m/h 0 %
14:00:00 clear sky 34.810 34.810 34.810 10 3.16 m/h 0 %
17:00:00 clear sky 30.040 30.040 30.040 13 2.57 m/h 0 %
20:00:00 clear sky 22.470 22.470 22.470 21 1.53 m/h 0 %
23:00:00 clear sky 20.270 20.270 20.270 24 0.86 m/h 0 %
30-Oct-2020 (Fri)
02:00:00 clear sky 19.390 19.390 19.390 25 1.53 m/h 0 %
05:00:00 clear sky 18.200 18.200 18.200 27 2.42 m/h 0 %
08:00:00 clear sky 21.810 21.810 21.810 21 1.38 m/h 0 %
11:00:00 clear sky 31.680 31.680 31.680 12 2.7 m/h 0 %
14:00:00 clear sky 34.310 34.310 34.310 10 3.54 m/h 0 %
17:00:00 clear sky 29.170 29.170 29.170 13 2.67 m/h 0 %
20:00:00 clear sky 22.780 22.780 22.780 20 2.37 m/h 0 %
23:00:00 clear sky 20.870 20.870 20.870 22 1.94 m/h 0 %
31-Oct-2020 (Sat)
02:00:00 clear sky 18.730 18.730 18.730 25 1.9 m/h 0 %
05:00:00 clear sky 17.580 17.580 17.580 27 1.77 m/h 0 %
08:00:00 clear sky 21.620 21.620 21.620 21 0.6 m/h 0 %
11:00:00 clear sky 32.500 32.500 32.500 10 0.35 m/h 0 %
14:00:00 clear sky 33.870 33.870 33.870 10 2.96 m/h 0 %
17:00:00 clear sky 29.070 29.070 29.070 13 2.65 m/h 0 %
20:00:00 clear sky 22.850 22.850 22.850 19 2.53 m/h 0 %
23:00:00 clear sky 20.890 20.890 20.890 22 1.79 m/h 0 %
01-Nov-2020 (Sun)
02:00:00 clear sky 17.840 17.840 17.840 26 1.33 m/h 0 %
05:00:00 clear sky 17.170 17.170 17.170 27 0.93 m/h 0 %
08:00:00 clear sky 22.690 22.690 22.690 19 0.87 m/h 0 %
11:00:00 clear sky 32.860 32.860 32.860 10 1.35 m/h 0 %
14:00:00 clear sky 34.160 34.160 34.160 9 2.68 m/h 0 %
17:00:00 clear sky 28.780 28.780 28.780 12 2.4 m/h 0 %
20:00:00 clear sky 21.770 21.770 21.770 19 2.32 m/h 0 %
23:00:00 clear sky 19.110 19.110 19.110 23 1.25 m/h 0 %
02-Nov-2020 (Mon)
02:00:00 clear sky 17.140 17.140 17.140 26 0.63 m/h 0 %
05:00:00 clear sky 17.310 17.310 17.310 26 1.46 m/h 0 %

Famous Cities (60)